createdAt,value
2022-11-17T00:01:28.170Z,9.76
2022-11-17T00:06:23.161Z,9.93
2022-11-17T00:11:18.251Z,10.85
2022-11-17T00:16:18.176Z,10.91
2022-11-17T00:21:24.389Z,10.47
2022-11-17T00:26:33.159Z,11.77
2022-11-17T00:31:46.022Z,12.02
2022-11-17T00:36:41.663Z,11.22
2022-11-17T00:41:38.493Z,11.88
2022-11-17T00:46:33.699Z,11.89
2022-11-17T00:51:33.740Z,11.48
2022-11-17T00:56:30.385Z,12.31
2022-11-17T01:01:31.650Z,11.97
2022-11-17T01:06:30.317Z,12.44
2022-11-17T01:11:33.868Z,12.30
2022-11-17T01:16:37.182Z,11.66
2022-11-17T01:21:32.487Z,11.63
2022-11-17T01:26:30.815Z,11.76
2022-11-17T01:31:26.633Z,12.31
2022-11-17T01:36:25.696Z,12.06
2022-11-17T01:41:32.246Z,11.96
2022-11-17T01:46:50.359Z,12.60
2022-11-17T01:51:49.681Z,12.83
2022-11-17T01:56:48.201Z,12.44
2022-11-17T02:02:26.420Z,11.94
2022-11-17T02:07:37.055Z,12.26
2022-11-17T02:12:33.501Z,13.56
2022-11-17T02:17:38.199Z,13.57
2022-11-17T02:23:00.307Z,12.73
2022-11-17T02:34:02.713Z,13.43
2022-11-17T02:39:16.034Z,12.58
2022-11-17T02:44:44.728Z,12.95
2022-11-17T02:49:44.791Z,12.98
2022-11-17T02:54:45.366Z,12.93
2022-11-17T02:59:50.829Z,12.54
2022-11-17T03:04:52.408Z,11.58
2022-11-17T03:09:51.518Z,12.22
2022-11-17T03:14:53.854Z,12.42
2022-11-17T03:19:55.836Z,11.21
2022-11-17T03:25:07.173Z,12.39
2022-11-17T03:30:04.823Z,11.56
2022-11-17T03:35:02.218Z,11.66
2022-11-17T03:39:59.656Z,12.20
2022-11-17T03:44:57.374Z,10.91
2022-11-17T03:49:59.157Z,11.66
2022-11-17T03:54:53.401Z,11.62
2022-11-17T03:59:53.860Z,10.71
2022-11-17T04:05:07.763Z,11.29
2022-11-17T04:10:14.630Z,11.44
2022-11-17T04:15:32.398Z,11.26
2022-11-17T04:20:39.574Z,10.44
2022-11-17T04:25:52.433Z,10.32
2022-11-17T04:30:50.011Z,11.36
2022-11-17T04:35:43.690Z,10.30
2022-11-17T04:40:58.778Z,11.12
2022-11-17T04:45:52.350Z,9.92
2022-11-17T04:50:46.440Z,9.49
2022-11-17T05:01:34.350Z,9.51
2022-11-17T05:06:34.698Z,9.62
2022-11-17T05:18:06.811Z,11.18
2022-11-17T05:23:27.210Z,11.26
2022-11-17T05:29:28.562Z,11.00
2022-11-17T05:34:48.387Z,12.08
2022-11-17T05:40:29.483Z,11.25
2022-11-17T05:50:44.637Z,11.79
2022-11-17T05:55:43.328Z,13.14
2022-11-17T06:00:42.485Z,13.72
2022-11-17T06:05:43.398Z,13.74
2022-11-17T06:10:39.453Z,13.86
2022-11-17T06:15:37.632Z,13.24
2022-11-17T06:20:36.616Z,14.30
2022-11-17T06:25:38.164Z,14.42
2022-11-17T06:30:43.058Z,14.25
2022-11-17T06:35:44.174Z,14.45
2022-11-17T06:40:40.009Z,12.92
2022-11-17T06:45:37.225Z,13.18
2022-11-17T06:50:30.647Z,13.71
2022-11-17T06:55:25.784Z,13.30
2022-11-17T07:00:20.391Z,14.27
2022-11-17T07:05:13.918Z,14.47
2022-11-17T07:10:11.047Z,14.11
2022-11-17T07:15:13.888Z,14.83
2022-11-17T07:20:08.999Z,14.53
2022-11-17T07:25:33.942Z,13.49
2022-11-17T08:04:21.766Z,14.50
2022-11-17T08:09:48.687Z,14.10
2022-11-17T08:16:09.181Z,13.57
2022-11-17T09:04:42.162Z,14.61
2022-11-17T09:09:37.105Z,14.59
2022-11-17T09:14:31.646Z,14.60
2022-11-17T09:19:25.061Z,14.22
2022-11-17T09:24:18.517Z,14.18
2022-11-17T09:29:13.289Z,14.68
2022-11-17T09:34:06.605Z,14.70
2022-11-17T09:39:00.110Z,14.64
2022-11-17T09:44:04.015Z,14.16
2022-11-17T09:49:04.457Z,14.81
2022-11-17T09:54:03.415Z,14.85
2022-11-17T09:59:00.041Z,14.72
2022-11-17T10:04:01.775Z,14.75
2022-11-17T10:09:01.448Z,14.93
2022-11-17T10:13:58.189Z,14.30
2022-11-17T10:18:53.655Z,14.32
2022-11-17T10:23:57.727Z,14.51
2022-11-17T10:29:09.272Z,15.02
2022-11-17T10:34:03.020Z,15.02
2022-11-17T10:39:00.234Z,15.02
2022-11-17T10:44:03.196Z,14.37
2022-11-17T10:49:25.962Z,13.91
2022-11-17T10:54:24.003Z,14.68
2022-11-17T10:59:22.036Z,13.98
2022-11-17T11:04:37.452Z,14.38
2022-11-17T11:09:34.019Z,14.93
2022-11-17T11:14:34.493Z,14.22
2022-11-17T11:19:28.174Z,14.13
2022-11-17T11:24:33.364Z,14.37
2022-11-17T11:29:32.091Z,14.10
2022-11-17T11:34:49.249Z,13.18
2022-11-17T11:39:55.797Z,14.52
2022-11-17T11:45:10.897Z,14.50
2022-11-17T11:50:15.528Z,14.60
2022-11-17T11:55:21.022Z,14.47
2022-11-17T12:00:17.439Z,15.05
2022-11-17T12:05:22.759Z,15.28
2022-11-17T12:10:31.881Z,14.97
2022-11-17T12:15:40.832Z,14.52
2022-11-17T12:20:57.415Z,15.80
2022-11-17T12:25:54.612Z,15.71
2022-11-17T12:31:09.991Z,16.05
2022-11-17T12:36:36.997Z,15.94
2022-11-17T12:42:09.187Z,16.19
2022-11-17T12:47:13.879Z,16.31
2022-11-17T12:52:24.779Z,16.22
2022-11-17T12:57:26.324Z,15.89
2022-11-17T13:02:54.460Z,16.46
2022-11-17T13:07:48.210Z,16.37
2022-11-17T13:12:50.616Z,15.77
2022-11-17T13:17:45.845Z,16.08
2022-11-17T13:22:42.344Z,16.15
2022-11-17T13:27:35.769Z,15.91
2022-11-17T13:32:30.583Z,15.33
2022-11-17T13:37:27.928Z,15.90
2022-11-17T13:42:21.543Z,15.74
2022-11-17T13:47:21.704Z,15.16
2022-11-17T13:52:37.010Z,15.73
2022-11-17T13:57:56.096Z,15.24
2022-11-17T14:02:55.505Z,15.50
2022-11-17T14:07:55.169Z,15.47
2022-11-17T14:12:51.468Z,15.50
2022-11-17T14:18:39.555Z,15.26
2022-11-17T14:41:04.843Z,14.82
2022-11-17T14:46:04.649Z,14.93
2022-11-17T14:51:31.157Z,14.21
2022-11-17T14:57:09.083Z,14.18
2022-11-17T15:03:19.074Z,14.66
2022-11-17T15:21:55.574Z,14.39
2022-11-17T15:26:50.445Z,14.30
2022-11-17T15:31:48.938Z,13.05
2022-11-17T15:36:44.364Z,14.18
2022-11-17T15:41:43.378Z,13.76
2022-11-17T15:46:47.217Z,13.26
2022-11-17T15:51:54.095Z,12.59
2022-11-17T15:56:55.331Z,12.94
2022-11-17T16:02:15.337Z,13.18
2022-11-17T16:07:11.994Z,12.75
2022-11-17T16:12:07.400Z,12.65
2022-11-17T16:17:14.653Z,13.15
2022-11-17T16:22:09.619Z,12.81
2022-11-17T16:27:03.234Z,12.56
2022-11-17T16:31:57.401Z,12.67
2022-11-17T16:36:50.720Z,12.98
2022-11-17T16:41:50.012Z,12.71
2022-11-17T16:46:46.887Z,12.50
2022-11-17T16:51:50.981Z,13.15
2022-11-17T16:56:48.622Z,13.35
2022-11-17T17:01:42.261Z,12.25
2022-11-17T17:06:37.451Z,12.80
2022-11-17T17:11:32.135Z,12.81
2022-11-17T17:16:26.993Z,12.15
2022-11-17T17:21:20.914Z,12.85
2022-11-17T17:26:18.515Z,11.64
2022-11-17T17:31:24.661Z,11.43
2022-11-17T17:36:24.486Z,12.40
2022-11-17T17:41:22.179Z,11.71
2022-11-17T17:46:28.478Z,12.18
2022-11-17T17:51:25.288Z,12.16
2022-11-17T17:56:28.812Z,12.22
2022-11-17T18:01:28.349Z,12.08
2022-11-17T18:06:26.770Z,12.10
2022-11-17T18:11:22.733Z,12.18
2022-11-17T18:16:19.345Z,11.61
2022-11-17T18:21:14.279Z,12.64
2022-11-17T18:26:16.549Z,12.43
2022-11-17T18:31:15.570Z,11.88
2022-11-17T18:36:11.887Z,11.58
2022-11-17T18:41:07.744Z,12.46
2022-11-17T18:46:07.904Z,12.39
2022-11-17T18:51:20.278Z,12.35
2022-11-17T18:56:15.862Z,11.75
2022-11-17T19:01:14.786Z,11.61
2022-11-17T19:06:14.882Z,11.79
2022-11-17T19:11:15.919Z,11.62
2022-11-17T19:16:13.642Z,12.26
2022-11-17T19:21:11.691Z,11.56
2022-11-17T19:26:12.039Z,10.98
2022-11-17T19:31:17.207Z,10.91
2022-11-17T19:36:19.573Z,11.93
2022-11-17T19:41:16.459Z,12.00
2022-11-17T19:46:11.850Z,11.97
2022-11-17T19:51:20.076Z,11.56
2022-11-17T19:56:18.634Z,12.20
2022-11-17T20:01:13.996Z,12.05
2022-11-17T20:06:08.300Z,11.80
2022-11-17T20:11:08.952Z,12.24
2022-11-17T20:16:11.973Z,12.24
2022-11-17T20:21:19.868Z,12.12
2022-11-17T20:26:18.192Z,11.71
2022-11-17T20:31:17.510Z,11.30
2022-11-17T20:36:18.036Z,11.89
2022-11-17T20:41:13.163Z,12.14
2022-11-17T20:46:08.089Z,10.81
2022-11-17T20:51:04.550Z,11.55
2022-11-17T20:55:59.289Z,11.34
2022-11-17T21:00:53.350Z,11.61
2022-11-17T21:06:02.166Z,11.93
2022-11-17T21:11:37.054Z,10.83
2022-11-17T21:16:52.761Z,10.88
2022-11-17T21:28:14.657Z,11.12
2022-11-17T21:33:55.214Z,11.95
2022-11-17T21:38:56.189Z,10.67
2022-11-17T21:43:53.577Z,11.53
2022-11-17T21:48:50.745Z,11.07
2022-11-17T21:53:54.127Z,10.09
2022-11-17T21:58:58.088Z,11.11
2022-11-17T22:04:07.495Z,10.28
2022-11-17T22:09:01.562Z,11.57
2022-11-17T22:14:24.480Z,11.15
2022-11-17T22:19:53.591Z,10.01
2022-11-17T22:24:54.947Z,11.04
2022-11-17T22:29:51.533Z,11.21
2022-11-17T22:34:50.501Z,9.73
2022-11-17T22:39:46.577Z,9.54
2022-11-17T22:44:40.247Z,10.94
2022-11-17T22:49:33.933Z,10.19
2022-11-17T22:54:30.695Z,10.67
2022-11-17T22:59:24.945Z,10.09
2022-11-17T23:04:18.402Z,9.72
2022-11-17T23:09:12.702Z,10.63
2022-11-17T23:14:10.791Z,10.19
2022-11-17T23:19:04.549Z,9.99
2022-11-17T23:24:06.130Z,9.97
2022-11-17T23:28:59.586Z,10.63
2022-11-17T23:33:54.616Z,10.74
2022-11-17T23:38:48.742Z,10.67
2022-11-17T23:43:48.457Z,10.17
2022-11-17T23:48:48.882Z,10.85
2022-11-17T23:53:44.033Z,10.39
2022-11-17T23:58:40.785Z,10.52
